sensor_id;sensor_type;location;lat;lon;timestamp;temperature;humidity
28374;DHT22;15616;40.148;-102.718;2023-04-06T00:00:50;20.50;46.10
28374;DHT22;15616;40.148;-102.718;2023-04-06T00:03:15;20.50;46.10
28374;DHT22;15616;40.148;-102.718;2023-04-06T00:05:41;20.50;46.10
28374;DHT22;15616;40.148;-102.718;2023-04-06T00:08:07;20.50;46.00
28374;DHT22;15616;40.148;-102.718;2023-04-06T00:10:33;20.50;46.00
28374;DHT22;15616;40.148;-102.718;2023-04-06T00:12:59;20.50;46.00
28374;DHT22;15616;40.148;-102.718;2023-04-06T00:15:25;20.50;46.00
28374;DHT22;15616;40.148;-102.718;2023-04-06T00:17:51;20.50;46.00
28374;DHT22;15616;40.148;-102.718;2023-04-06T00:20:16;20.50;46.00
28374;DHT22;15616;40.148;-102.718;2023-04-06T00:22:43;20.50;46.00
28374;DHT22;15616;40.148;-102.718;2023-04-06T00:25:08;20.50;46.00
28374;DHT22;15616;40.148;-102.718;2023-04-06T00:27:35;20.50;46.00
28374;DHT22;15616;40.148;-102.718;2023-04-06T00:30:01;20.50;45.90
28374;DHT22;15616;40.148;-102.718;2023-04-06T00:32:27;20.50;45.90
28374;DHT22;15616;40.148;-102.718;2023-04-06T00:34:53;20.50;45.90
28374;DHT22;15616;40.148;-102.718;2023-04-06T00:37:19;20.60;45.80
28374;DHT22;15616;40.148;-102.718;2023-04-06T00:39:45;20.50;45.80
28374;DHT22;15616;40.148;-102.718;2023-04-06T00:42:11;20.60;45.80
28374;DHT22;15616;40.148;-102.718;2023-04-06T00:44:42;20.50;45.70
28374;DHT22;15616;40.148;-102.718;2023-04-06T00:47:08;20.50;45.70
28374;DHT22;15616;40.148;-102.718;2023-04-06T00:49:34;20.50;45.70
28374;DHT22;15616;40.148;-102.718;2023-04-06T00:52:00;20.50;45.70
28374;DHT22;15616;40.148;-102.718;2023-04-06T00:54:26;20.50;45.70
28374;DHT22;15616;40.148;-102.718;2023-04-06T00:56:52;20.50;45.70
28374;DHT22;15616;40.148;-102.718;2023-04-06T00:59:18;20.50;45.80
28374;DHT22;15616;40.148;-102.718;2023-04-06T01:01:43;20.50;45.90
28374;DHT22;15616;40.148;-102.718;2023-04-06T01:04:09;20.50;46.00
28374;DHT22;15616;40.148;-102.718;2023-04-06T01:06:35;20.50;46.10
28374;DHT22;15616;40.148;-102.718;2023-04-06T01:09:01;20.40;46.10
28374;DHT22;15616;40.148;-102.718;2023-04-06T01:11:27;20.40;46.80
28374;DHT22;15616;40.148;-102.718;2023-04-06T01:13:52;20.40;46.20
28374;DHT22;15616;40.148;-102.718;2023-04-06T01:16:18;20.40;46.20
28374;DHT22;15616;40.148;-102.718;2023-04-06T01:18:44;20.40;46.30
28374;DHT22;15616;40.148;-102.718;2023-04-06T01:21:09;20.40;46.30
28374;DHT22;15616;40.148;-102.718;2023-04-06T01:23:46;20.40;46.20
28374;DHT22;15616;40.148;-102.718;2023-04-06T01:26:12;20.40;46.10
28374;DHT22;15616;40.148;-102.718;2023-04-06T01:28:38;20.40;46.10
28374;DHT22;15616;40.148;-102.718;2023-04-06T01:31:06;20.50;46.20
28374;DHT22;15616;40.148;-102.718;2023-04-06T01:33:31;20.50;46.10
28374;DHT22;15616;40.148;-102.718;2023-04-06T01:35:57;20.40;46.00
28374;DHT22;15616;40.148;-102.718;2023-04-06T01:38:23;20.50;46.00
28374;DHT22;15616;40.148;-102.718;2023-04-06T01:40:48;20.50;46.00
28374;DHT22;15616;40.148;-102.718;2023-04-06T01:43:14;20.50;45.90
28374;DHT22;15616;40.148;-102.718;2023-04-06T01:45:40;20.50;45.90
28374;DHT22;15616;40.148;-102.718;2023-04-06T01:48:07;20.50;45.80
28374;DHT22;15616;40.148;-102.718;2023-04-06T01:50:32;20.50;46.50
28374;DHT22;15616;40.148;-102.718;2023-04-06T01:52:58;20.50;45.80
28374;DHT22;15616;40.148;-102.718;2023-04-06T01:55:24;20.50;45.80
28374;DHT22;15616;40.148;-102.718;2023-04-06T01:57:49;20.50;45.80
28374;DHT22;15616;40.148;-102.718;2023-04-06T02:00:15;20.50;45.80
28374;DHT22;15616;40.148;-102.718;2023-04-06T02:02:41;20.50;45.80
28374;DHT22;15616;40.148;-102.718;2023-04-06T02:05:07;20.50;45.80
28374;DHT22;15616;40.148;-102.718;2023-04-06T02:07:33;20.50;45.80
28374;DHT22;15616;40.148;-102.718;2023-04-06T02:09:58;20.50;45.70
28374;DHT22;15616;40.148;-102.718;2023-04-06T02:12:24;20.60;45.80
28374;DHT22;15616;40.148;-102.718;2023-04-06T02:14:50;20.60;45.70
28374;DHT22;15616;40.148;-102.718;2023-04-06T02:17:16;20.60;45.70
28374;DHT22;15616;40.148;-102.718;2023-04-06T02:19:41;20.60;45.70
28374;DHT22;15616;40.148;-102.718;2023-04-06T02:22:07;20.60;45.70
28374;DHT22;15616;40.148;-102.718;2023-04-06T02:24:33;20.60;45.60
28374;DHT22;15616;40.148;-102.718;2023-04-06T02:26:58;20.60;45.70
28374;DHT22;15616;40.148;-102.718;2023-04-06T02:29:24;20.60;45.70
28374;DHT22;15616;40.148;-102.718;2023-04-06T02:31:50;20.60;45.70
28374;DHT22;15616;40.148;-102.718;2023-04-06T02:34:15;20.60;45.70
28374;DHT22;15616;40.148;-102.718;2023-04-06T02:36:43;20.60;45.70
28374;DHT22;15616;40.148;-102.718;2023-04-06T02:39:10;20.60;45.70
28374;DHT22;15616;40.148;-102.718;2023-04-06T02:41:35;20.60;45.70
28374;DHT22;15616;40.148;-102.718;2023-04-06T02:44:02;20.60;45.80
28374;DHT22;15616;40.148;-102.718;2023-04-06T02:46:28;20.50;46.50
28374;DHT22;15616;40.148;-102.718;2023-04-06T02:48:54;20.50;45.80
28374;DHT22;15616;40.148;-102.718;2023-04-06T02:51:20;20.50;45.80
28374;DHT22;15616;40.148;-102.718;2023-04-06T02:53:46;20.50;45.80
28374;DHT22;15616;40.148;-102.718;2023-04-06T02:56:11;20.50;45.90
28374;DHT22;15616;40.148;-102.718;2023-04-06T02:58:37;20.50;45.90
28374;DHT22;15616;40.148;-102.718;2023-04-06T03:01:03;20.50;45.90
28374;DHT22;15616;40.148;-102.718;2023-04-06T03:03:29;20.50;45.90
28374;DHT22;15616;40.148;-102.718;2023-04-06T03:05:55;20.50;46.00
28374;DHT22;15616;40.148;-102.718;2023-04-06T03:08:23;20.50;45.90
28374;DHT22;15616;40.148;-102.718;2023-04-06T03:10:49;20.40;45.90
28374;DHT22;15616;40.148;-102.718;2023-04-06T03:13:15;20.50;46.00
28374;DHT22;15616;40.148;-102.718;2023-04-06T03:15:41;20.50;46.00
28374;DHT22;15616;40.148;-102.718;2023-04-06T03:18:07;20.50;46.00
28374;DHT22;15616;40.148;-102.718;2023-04-06T03:20:32;20.50;46.00
28374;DHT22;15616;40.148;-102.718;2023-04-06T03:22:58;20.50;45.90
28374;DHT22;15616;40.148;-102.718;2023-04-06T03:25:24;20.50;45.90
28374;DHT22;15616;40.148;-102.718;2023-04-06T03:27:50;20.50;45.80
28374;DHT22;15616;40.148;-102.718;2023-04-06T03:30:15;20.50;45.80
28374;DHT22;15616;40.148;-102.718;2023-04-06T03:32:43;20.50;45.70
28374;DHT22;15616;40.148;-102.718;2023-04-06T03:35:09;20.50;45.70
28374;DHT22;15616;40.148;-102.718;2023-04-06T03:37:35;20.50;45.70
28374;DHT22;15616;40.148;-102.718;2023-04-06T03:40:00;20.50;45.70
28374;DHT22;15616;40.148;-102.718;2023-04-06T03:42:26;20.50;45.70
28374;DHT22;15616;40.148;-102.718;2023-04-06T03:44:52;20.50;45.70
28374;DHT22;15616;40.148;-102.718;2023-04-06T03:47:17;20.50;45.70
28374;DHT22;15616;40.148;-102.718;2023-04-06T03:49:43;20.50;45.80
28374;DHT22;15616;40.148;-102.718;2023-04-06T03:52:09;20.50;45.90
28374;DHT22;15616;40.148;-102.718;2023-04-06T03:54:35;20.50;46.00
28374;DHT22;15616;40.148;-102.718;2023-04-06T03:57:01;20.50;46.10
28374;DHT22;15616;40.148;-102.718;2023-04-06T03:59:27;20.50;46.10
28374;DHT22;15616;40.148;-102.718;2023-04-06T04:01:53;20.50;46.10
28374;DHT22;15616;40.148;-102.718;2023-04-06T04:04:18;20.50;46.10
28374;DHT22;15616;40.148;-102.718;2023-04-06T04:06:44;20.50;46.10
28374;DHT22;15616;40.148;-102.718;2023-04-06T04:09:10;20.50;46.10
28374;DHT22;15616;40.148;-102.718;2023-04-06T04:11:36;20.50;46.10
28374;DHT22;15616;40.148;-102.718;2023-04-06T04:14:02;20.50;46.10
28374;DHT22;15616;40.148;-102.718;2023-04-06T04:16:27;20.40;46.00
28374;DHT22;15616;40.148;-102.718;2023-04-06T04:18:53;20.40;46.00
28374;DHT22;15616;40.148;-102.718;2023-04-06T04:21:19;20.40;46.10
28374;DHT22;15616;40.148;-102.718;2023-04-06T04:23:44;20.40;46.10
28374;DHT22;15616;40.148;-102.718;2023-04-06T04:26:10;20.30;46.10
28374;DHT22;15616;40.148;-102.718;2023-04-06T04:28:36;20.30;46.10
28374;DHT22;15616;40.148;-102.718;2023-04-06T04:31:02;20.30;46.10
28374;DHT22;15616;40.148;-102.718;2023-04-06T04:33:27;20.30;46.10
28374;DHT22;15616;40.148;-102.718;2023-04-06T04:35:53;20.30;46.10
28374;DHT22;15616;40.148;-102.718;2023-04-06T04:38:19;20.30;46.10
28374;DHT22;15616;40.148;-102.718;2023-04-06T04:40:45;20.30;46.10
28374;DHT22;15616;40.148;-102.718;2023-04-06T04:43:10;20.30;46.10
28374;DHT22;15616;40.148;-102.718;2023-04-06T04:45:36;20.30;46.10
28374;DHT22;15616;40.148;-102.718;2023-04-06T04:48:02;20.30;46.00
28374;DHT22;15616;40.148;-102.718;2023-04-06T04:50:30;20.30;46.00
28374;DHT22;15616;40.148;-102.718;2023-04-06T04:52:56;20.30;46.70
28374;DHT22;15616;40.148;-102.718;2023-04-06T04:55:21;20.40;46.00
28374;DHT22;15616;40.148;-102.718;2023-04-06T04:57:47;20.30;45.90
28374;DHT22;15616;40.148;-102.718;2023-04-06T05:00:13;20.30;45.90
28374;DHT22;15616;40.148;-102.718;2023-04-06T05:02:39;20.40;45.90
28374;DHT22;15616;40.148;-102.718;2023-04-06T05:05:05;20.40;45.90
28374;DHT22;15616;40.148;-102.718;2023-04-06T05:07:30;20.40;45.90
28374;DHT22;15616;40.148;-102.718;2023-04-06T05:09:56;20.40;46.50
28374;DHT22;15616;40.148;-102.718;2023-04-06T05:12:22;20.40;45.80
28374;DHT22;15616;40.148;-102.718;2023-04-06T05:14:48;20.40;45.80
28374;DHT22;15616;40.148;-102.718;2023-04-06T05:17:13;20.40;45.80
28374;DHT22;15616;40.148;-102.718;2023-04-06T05:19:39;20.40;45.70
28374;DHT22;15616;40.148;-102.718;2023-04-06T05:22:05;20.50;45.80
28374;DHT22;15616;40.148;-102.718;2023-04-06T05:24:31;20.50;45.70
28374;DHT22;15616;40.148;-102.718;2023-04-06T05:26:57;20.50;45.70
28374;DHT22;15616;40.148;-102.718;2023-04-06T05:29:22;20.50;45.70
28374;DHT22;15616;40.148;-102.718;2023-04-06T05:31:48;20.50;45.70
28374;DHT22;15616;40.148;-102.718;2023-04-06T05:34:14;20.50;45.70
28374;DHT22;15616;40.148;-102.718;2023-04-06T05:36:40;20.60;45.70
28374;DHT22;15616;40.148;-102.718;2023-04-06T05:39:06;20.60;45.70
28374;DHT22;15616;40.148;-102.718;2023-04-06T05:41:32;20.60;45.70
28374;DHT22;15616;40.148;-102.718;2023-04-06T05:43:58;20.60;45.70
28374;DHT22;15616;40.148;-102.718;2023-04-06T05:46:24;20.60;45.60
28374;DHT22;15616;40.148;-102.718;2023-04-06T05:48:49;20.60;45.60
28374;DHT22;15616;40.148;-102.718;2023-04-06T05:51:15;20.60;45.60
28374;DHT22;15616;40.148;-102.718;2023-04-06T05:53:41;20.60;45.60
28374;DHT22;15616;40.148;-102.718;2023-04-06T05:56:07;20.60;45.60
28374;DHT22;15616;40.148;-102.718;2023-04-06T05:58:32;20.60;45.60
28374;DHT22;15616;40.148;-102.718;2023-04-06T06:00:58;20.60;45.60
28374;DHT22;15616;40.148;-102.718;2023-04-06T06:03:24;20.60;45.60
28374;DHT22;15616;40.148;-102.718;2023-04-06T06:05:50;20.60;45.70
28374;DHT22;15616;40.148;-102.718;2023-04-06T06:08:16;20.60;45.70
28374;DHT22;15616;40.148;-102.718;2023-04-06T06:10:41;20.60;45.70
28374;DHT22;15616;40.148;-102.718;2023-04-06T06:13:08;20.60;45.70
28374;DHT22;15616;40.148;-102.718;2023-04-06T06:15:34;20.60;45.70
28374;DHT22;15616;40.148;-102.718;2023-04-06T06:18:00;20.60;45.70
28374;DHT22;15616;40.148;-102.718;2023-04-06T06:20:26;20.60;45.90
28374;DHT22;15616;40.148;-102.718;2023-04-06T06:22:52;20.60;45.80
28374;DHT22;15616;40.148;-102.718;2023-04-06T06:25:17;20.60;45.80
28374;DHT22;15616;40.148;-102.718;2023-04-06T06:27:43;20.60;45.80
28374;DHT22;15616;40.148;-102.718;2023-04-06T06:30:09;20.60;45.80
28374;DHT22;15616;40.148;-102.718;2023-04-06T06:32:35;20.60;45.80
28374;DHT22;15616;40.148;-102.718;2023-04-06T06:35:01;20.60;45.80
28374;DHT22;15616;40.148;-102.718;2023-04-06T06:37:27;20.60;45.80
28374;DHT22;15616;40.148;-102.718;2023-04-06T06:39:52;20.60;45.80
28374;DHT22;15616;40.148;-102.718;2023-04-06T06:42:18;20.60;45.80
28374;DHT22;15616;40.148;-102.718;2023-04-06T06:44:44;20.60;45.80
28374;DHT22;15616;40.148;-102.718;2023-04-06T06:47:10;20.60;45.80
28374;DHT22;15616;40.148;-102.718;2023-04-06T06:49:36;20.60;45.80
28374;DHT22;15616;40.148;-102.718;2023-04-06T06:52:01;20.60;45.80
28374;DHT22;15616;40.148;-102.718;2023-04-06T06:54:27;20.60;45.70
28374;DHT22;15616;40.148;-102.718;2023-04-06T06:56:53;20.60;45.80
28374;DHT22;15616;40.148;-102.718;2023-04-06T06:59:19;20.60;45.70
28374;DHT22;15616;40.148;-102.718;2023-04-06T07:01:46;20.60;45.70
28374;DHT22;15616;40.148;-102.718;2023-04-06T07:04:11;20.70;45.70
28374;DHT22;15616;40.148;-102.718;2023-04-06T07:06:37;20.70;45.70
28374;DHT22;15616;40.148;-102.718;2023-04-06T07:09:03;20.70;45.60
28374;DHT22;15616;40.148;-102.718;2023-04-06T07:11:29;20.70;45.60
28374;DHT22;15616;40.148;-102.718;2023-04-06T07:13:55;20.70;45.60
28374;DHT22;15616;40.148;-102.718;2023-04-06T07:16:21;20.70;45.60
28374;DHT22;15616;40.148;-102.718;2023-04-06T07:18:47;20.60;45.50
28374;DHT22;15616;40.148;-102.718;2023-04-06T07:21:13;20.60;45.50
28374;DHT22;15616;40.148;-102.718;2023-04-06T07:23:39;20.60;45.50
28374;DHT22;15616;40.148;-102.718;2023-04-06T07:26:05;20.60;45.60
28374;DHT22;15616;40.148;-102.718;2023-04-06T07:28:31;20.60;45.60
28374;DHT22;15616;40.148;-102.718;2023-04-06T07:30:56;20.60;45.60
28374;DHT22;15616;40.148;-102.718;2023-04-06T07:33:22;20.60;45.70
28374;DHT22;15616;40.148;-102.718;2023-04-06T07:35:48;20.60;45.70
28374;DHT22;15616;40.148;-102.718;2023-04-06T07:38:14;20.60;45.70
28374;DHT22;15616;40.148;-102.718;2023-04-06T07:40:39;20.60;45.70
28374;DHT22;15616;40.148;-102.718;2023-04-06T07:43:05;20.60;45.70
28374;DHT22;15616;40.148;-102.718;2023-04-06T07:45:31;20.60;45.70
28374;DHT22;15616;40.148;-102.718;2023-04-06T07:47:57;20.60;45.80
28374;DHT22;15616;40.148;-102.718;2023-04-06T07:50:22;20.60;45.80
28374;DHT22;15616;40.148;-102.718;2023-04-06T07:52:48;20.60;45.80
28374;DHT22;15616;40.148;-102.718;2023-04-06T07:55:14;20.60;45.80
28374;DHT22;15616;40.148;-102.718;2023-04-06T07:57:40;20.60;45.90
28374;DHT22;15616;40.148;-102.718;2023-04-06T08:00:05;20.60;45.90
28374;DHT22;15616;40.148;-102.718;2023-04-06T08:02:31;20.60;45.90
28374;DHT22;15616;40.148;-102.718;2023-04-06T08:04:57;20.60;45.90
28374;DHT22;15616;40.148;-102.718;2023-04-06T08:07:23;20.60;45.90
28374;DHT22;15616;40.148;-102.718;2023-04-06T08:09:48;20.60;46.00
28374;DHT22;15616;40.148;-102.718;2023-04-06T08:12:14;20.60;46.00
28374;DHT22;15616;40.148;-102.718;2023-04-06T08:14:40;20.50;46.00
28374;DHT22;15616;40.148;-102.718;2023-04-06T08:17:06;20.60;46.10
28374;DHT22;15616;40.148;-102.718;2023-04-06T08:19:32;20.60;46.80
28374;DHT22;15616;40.148;-102.718;2023-04-06T08:21:57;20.50;46.10
28374;DHT22;15616;40.148;-102.718;2023-04-06T08:24:23;20.50;46.10
28374;DHT22;15616;40.148;-102.718;2023-04-06T08:26:49;20.50;46.10
28374;DHT22;15616;40.148;-102.718;2023-04-06T08:29:16;20.50;46.10
28374;DHT22;15616;40.148;-102.718;2023-04-06T08:31:42;20.50;46.20
28374;DHT22;15616;40.148;-102.718;2023-04-06T08:34:08;20.50;46.10
28374;DHT22;15616;40.148;-102.718;2023-04-06T08:36:34;20.50;46.10
28374;DHT22;15616;40.148;-102.718;2023-04-06T08:39:00;20.50;46.20
28374;DHT22;15616;40.148;-102.718;2023-04-06T08:41:27;20.50;46.20
28374;DHT22;15616;40.148;-102.718;2023-04-06T08:43:56;20.50;46.20
28374;DHT22;15616;40.148;-102.718;2023-04-06T08:46:22;20.50;46.20
28374;DHT22;15616;40.148;-102.718;2023-04-06T08:48:54;20.50;46.20
28374;DHT22;15616;40.148;-102.718;2023-04-06T08:51:20;20.50;46.20
28374;DHT22;15616;40.148;-102.718;2023-04-06T08:53:48;20.50;46.20
28374;DHT22;15616;40.148;-102.718;2023-04-06T08:56:15;20.60;46.10
28374;DHT22;15616;40.148;-102.718;2023-04-06T08:58:41;20.60;46.20
28374;DHT22;15616;40.148;-102.718;2023-04-06T09:01:08;20.60;46.20
28374;DHT22;15616;40.148;-102.718;2023-04-06T09:03:37;20.60;46.20
28374;DHT22;15616;40.148;-102.718;2023-04-06T09:06:03;20.60;46.20
28374;DHT22;15616;40.148;-102.718;2023-04-06T09:08:29;20.60;47.00
28374;DHT22;15616;40.148;-102.718;2023-04-06T09:10:55;20.60;46.20
28374;DHT22;15616;40.148;-102.718;2023-04-06T09:13:21;20.60;46.20
28374;DHT22;15616;40.148;-102.718;2023-04-06T09:15:57;20.60;46.30
28374;DHT22;15616;40.148;-102.718;2023-04-06T09:18:32;20.60;46.30
28374;DHT22;15616;40.148;-102.718;2023-04-06T09:21:02;20.60;46.30
28374;DHT22;15616;40.148;-102.718;2023-04-06T09:23:28;20.60;46.30
28374;DHT22;15616;40.148;-102.718;2023-04-06T09:26:13;20.50;46.30
28374;DHT22;15616;40.148;-102.718;2023-04-06T09:28:45;20.60;46.40
28374;DHT22;15616;40.148;-102.718;2023-04-06T09:31:12;20.50;46.40
28374;DHT22;15616;40.148;-102.718;2023-04-06T09:33:43;20.50;46.50
28374;DHT22;15616;40.148;-102.718;2023-04-06T09:36:10;20.50;46.40
28374;DHT22;15616;40.148;-102.718;2023-04-06T09:38:36;20.60;46.40
28374;DHT22;15616;40.148;-102.718;2023-04-06T09:41:02;20.60;46.40
28374;DHT22;15616;40.148;-102.718;2023-04-06T09:43:28;20.60;46.40
28374;DHT22;15616;40.148;-102.718;2023-04-06T09:45:55;20.60;46.40
28374;DHT22;15616;40.148;-102.718;2023-04-06T09:48:21;20.60;46.30
28374;DHT22;15616;40.148;-102.718;2023-04-06T09:50:49;20.60;46.30
28374;DHT22;15616;40.148;-102.718;2023-04-06T09:53:15;20.60;46.40
28374;DHT22;15616;40.148;-102.718;2023-04-06T09:55:42;20.60;46.30
28374;DHT22;15616;40.148;-102.718;2023-04-06T09:58:18;20.50;46.30
28374;DHT22;15616;40.148;-102.718;2023-04-06T10:00:48;20.60;46.40
28374;DHT22;15616;40.148;-102.718;2023-04-06T10:05:43;20.50;46.50
28374;DHT22;15616;40.148;-102.718;2023-04-06T10:08:11;20.50;46.40
28374;DHT22;15616;40.148;-102.718;2023-04-06T10:10:37;20.60;46.50
28374;DHT22;15616;40.148;-102.718;2023-04-06T10:13:03;20.60;46.50
28374;DHT22;15616;40.148;-102.718;2023-04-06T10:15:30;20.60;46.50
28374;DHT22;15616;40.148;-102.718;2023-04-06T10:17:56;20.50;46.50
28374;DHT22;15616;40.148;-102.718;2023-04-06T10:21:23;20.60;46.60
28374;DHT22;15616;40.148;-102.718;2023-04-06T10:23:29;20.60;46.50
28374;DHT22;15616;40.148;-102.718;2023-04-06T10:25:57;20.60;46.50
28374;DHT22;15616;40.148;-102.718;2023-04-06T10:28:23;20.60;46.60
28374;DHT22;15616;40.148;-102.718;2023-04-06T10:30:56;20.60;46.60
28374;DHT22;15616;40.148;-102.718;2023-04-06T10:33:22;20.60;46.60
28374;DHT22;15616;40.148;-102.718;2023-04-06T10:35:48;20.60;46.50
28374;DHT22;15616;40.148;-102.718;2023-04-06T10:38:13;20.60;46.60
28374;DHT22;15616;40.148;-102.718;2023-04-06T10:40:40;20.60;46.60
28374;DHT22;15616;40.148;-102.718;2023-04-06T10:43:07;20.60;46.60
28374;DHT22;15616;40.148;-102.718;2023-04-06T10:45:33;20.60;46.60
28374;DHT22;15616;40.148;-102.718;2023-04-06T10:48:00;20.60;46.60
28374;DHT22;15616;40.148;-102.718;2023-04-06T10:50:27;20.60;46.60
28374;DHT22;15616;40.148;-102.718;2023-04-06T10:52:59;20.60;46.70
28374;DHT22;15616;40.148;-102.718;2023-04-06T10:55:25;20.60;46.70
28374;DHT22;15616;40.148;-102.718;2023-04-06T10:57:51;20.60;46.60
28374;DHT22;15616;40.148;-102.718;2023-04-06T11:00:17;20.60;46.60
28374;DHT22;15616;40.148;-102.718;2023-04-06T11:02:44;20.60;46.60
28374;DHT22;15616;40.148;-102.718;2023-04-06T11:05:11;20.60;47.40
28374;DHT22;15616;40.148;-102.718;2023-04-06T11:07:37;20.60;46.70
28374;DHT22;15616;40.148;-102.718;2023-04-06T11:10:03;20.60;46.70
28374;DHT22;15616;40.148;-102.718;2023-04-06T11:12:29;20.60;46.70
28374;DHT22;15616;40.148;-102.718;2023-04-06T11:14:56;20.60;46.70
28374;DHT22;15616;40.148;-102.718;2023-04-06T11:17:28;20.60;46.80
28374;DHT22;15616;40.148;-102.718;2023-04-06T11:19:54;20.60;46.80
28374;DHT22;15616;40.148;-102.718;2023-04-06T11:22:20;20.60;46.80
28374;DHT22;15616;40.148;-102.718;2023-04-06T11:24:46;20.60;46.80
28374;DHT22;15616;40.148;-102.718;2023-04-06T11:27:11;20.60;46.80
28374;DHT22;15616;40.148;-102.718;2023-04-06T11:29:37;20.60;46.80
28374;DHT22;15616;40.148;-102.718;2023-04-06T11:32:04;20.60;46.80
28374;DHT22;15616;40.148;-102.718;2023-04-06T11:34:30;20.60;46.80
28374;DHT22;15616;40.148;-102.718;2023-04-06T11:36:57;20.60;46.80
28374;DHT22;15616;40.148;-102.718;2023-04-06T11:39:24;20.60;46.80
28374;DHT22;15616;40.148;-102.718;2023-04-06T11:41:50;20.60;46.80
28374;DHT22;15616;40.148;-102.718;2023-04-06T11:44:28;20.60;46.80
28374;DHT22;15616;40.148;-102.718;2023-04-06T11:46:56;20.60;46.90
28374;DHT22;15616;40.148;-102.718;2023-04-06T11:49:26;20.60;46.90
28374;DHT22;15616;40.148;-102.718;2023-04-06T11:51:52;20.50;46.90
28374;DHT22;15616;40.148;-102.718;2023-04-06T11:54:17;20.60;46.90
28374;DHT22;15616;40.148;-102.718;2023-04-06T11:56:45;20.60;46.90
28374;DHT22;15616;40.148;-102.718;2023-04-06T11:59:11;20.60;46.90
28374;DHT22;15616;40.148;-102.718;2023-04-06T12:01:44;20.50;46.80
28374;DHT22;15616;40.148;-102.718;2023-04-06T12:04:10;20.50;46.80
28374;DHT22;15616;40.148;-102.718;2023-04-06T12:06:36;20.60;46.80
28374;DHT22;15616;40.148;-102.718;2023-04-06T12:09:02;20.60;46.70
28374;DHT22;15616;40.148;-102.718;2023-04-06T12:11:28;20.60;46.70
28374;DHT22;15616;40.148;-102.718;2023-04-06T12:13:53;20.60;47.40
28374;DHT22;15616;40.148;-102.718;2023-04-06T12:16:19;20.60;46.60
28374;DHT22;15616;40.148;-102.718;2023-04-06T12:18:45;20.60;46.60
28374;DHT22;15616;40.148;-102.718;2023-04-06T12:21:11;20.60;46.50
28374;DHT22;15616;40.148;-102.718;2023-04-06T12:23:37;20.60;46.50
28374;DHT22;15616;40.148;-102.718;2023-04-06T12:26:03;20.60;46.60
28374;DHT22;15616;40.148;-102.718;2023-04-06T12:28:28;20.60;46.60
28374;DHT22;15616;40.148;-102.718;2023-04-06T12:30:54;20.60;46.60
28374;DHT22;15616;40.148;-102.718;2023-04-06T12:33:20;20.60;46.60
28374;DHT22;15616;40.148;-102.718;2023-04-06T12:35:46;20.60;46.60
28374;DHT22;15616;40.148;-102.718;2023-04-06T12:38:12;20.60;46.60
28374;DHT22;15616;40.148;-102.718;2023-04-06T12:40:38;20.60;46.60
28374;DHT22;15616;40.148;-102.718;2023-04-06T12:43:05;20.60;46.50
28374;DHT22;15616;40.148;-102.718;2023-04-06T12:45:31;20.60;46.50
28374;DHT22;15616;40.148;-102.718;2023-04-06T12:47:57;20.60;47.20
28374;DHT22;15616;40.148;-102.718;2023-04-06T12:50:23;20.60;46.40
28374;DHT22;15616;40.148;-102.718;2023-04-06T12:52:49;20.70;46.40
28374;DHT22;15616;40.148;-102.718;2023-04-06T12:55:15;20.70;46.40
28374;DHT22;15616;40.148;-102.718;2023-04-06T12:57:41;20.70;46.40
28374;DHT22;15616;40.148;-102.718;2023-04-06T13:00:07;20.60;46.30
28374;DHT22;15616;40.148;-102.718;2023-04-06T13:02:33;20.70;46.40
28374;DHT22;15616;40.148;-102.718;2023-04-06T13:04:58;20.60;46.40
28374;DHT22;15616;40.148;-102.718;2023-04-06T13:07:25;20.60;46.50
28374;DHT22;15616;40.148;-102.718;2023-04-06T13:09:51;20.60;46.50
28374;DHT22;15616;40.148;-102.718;2023-04-06T13:12:18;20.60;46.50
28374;DHT22;15616;40.148;-102.718;2023-04-06T13:14:44;20.60;46.60
28374;DHT22;15616;40.148;-102.718;2023-04-06T13:17:12;20.60;46.60
28374;DHT22;15616;40.148;-102.718;2023-04-06T13:19:38;20.60;46.70
28374;DHT22;15616;40.148;-102.718;2023-04-06T13:22:04;20.60;46.70
28374;DHT22;15616;40.148;-102.718;2023-04-06T13:24:29;20.60;46.70
28374;DHT22;15616;40.148;-102.718;2023-04-06T13:26:55;20.50;46.80
28374;DHT22;15616;40.148;-102.718;2023-04-06T13:29:21;20.50;46.80
28374;DHT22;15616;40.148;-102.718;2023-04-06T13:31:47;20.50;46.80
28374;DHT22;15616;40.148;-102.718;2023-04-06T13:34:13;20.50;46.90
28374;DHT22;15616;40.148;-102.718;2023-04-06T13:36:38;20.50;46.90
28374;DHT22;15616;40.148;-102.718;2023-04-06T13:39:06;20.50;47.60
28374;DHT22;15616;40.148;-102.718;2023-04-06T13:41:32;20.50;46.90
28374;DHT22;15616;40.148;-102.718;2023-04-06T13:43:58;20.50;46.90
28374;DHT22;15616;40.148;-102.718;2023-04-06T13:46:23;20.60;46.90
28374;DHT22;15616;40.148;-102.718;2023-04-06T13:48:50;20.60;46.80
28374;DHT22;15616;40.148;-102.718;2023-04-06T13:51:16;20.60;46.80
28374;DHT22;15616;40.148;-102.718;2023-04-06T13:53:42;20.60;46.80
28374;DHT22;15616;40.148;-102.718;2023-04-06T13:56:08;20.60;46.80
28374;DHT22;15616;40.148;-102.718;2023-04-06T13:58:33;20.60;46.80
28374;DHT22;15616;40.148;-102.718;2023-04-06T14:01:04;20.60;46.80
28374;DHT22;15616;40.148;-102.718;2023-04-06T14:03:31;20.60;46.80
28374;DHT22;15616;40.148;-102.718;2023-04-06T14:05:57;20.70;46.90
28374;DHT22;15616;40.148;-102.718;2023-04-06T14:08:23;20.60;46.80
28374;DHT22;15616;40.148;-102.718;2023-04-06T14:10:48;20.70;46.90
28374;DHT22;15616;40.148;-102.718;2023-04-06T14:13:14;20.70;46.80
28374;DHT22;15616;40.148;-102.718;2023-04-06T14:15:40;20.70;46.80
28374;DHT22;15616;40.148;-102.718;2023-04-06T14:18:07;20.70;46.90
28374;DHT22;15616;40.148;-102.718;2023-04-06T14:20:33;20.60;46.80
28374;DHT22;15616;40.148;-102.718;2023-04-06T14:23:00;20.70;46.90
28374;DHT22;15616;40.148;-102.718;2023-04-06T14:25:25;20.70;46.90
28374;DHT22;15616;40.148;-102.718;2023-04-06T14:27:51;20.70;46.90
28374;DHT22;15616;40.148;-102.718;2023-04-06T14:30:17;20.70;46.90
28374;DHT22;15616;40.148;-102.718;2023-04-06T14:32:43;20.70;47.00
28374;DHT22;15616;40.148;-102.718;2023-04-06T14:35:09;20.70;46.90
28374;DHT22;15616;40.148;-102.718;2023-04-06T14:37:35;20.70;47.00
28374;DHT22;15616;40.148;-102.718;2023-04-06T14:40:02;20.70;46.90
28374;DHT22;15616;40.148;-102.718;2023-04-06T14:42:28;20.70;46.90
28374;DHT22;15616;40.148;-102.718;2023-04-06T14:44:53;20.70;46.90